sensor_id;sensor_type;location;lat;lon;timestamp;pressure;altitude;pressure_sealevel;temperature;humidity
33191;BME280;19554;42.652;23.364;2023-04-08T00:00:23;94691.72;;;7.96;53.01
33191;BME280;19554;42.652;23.364;2023-04-08T00:02:49;94698.88;;;7.95;53.26
33191;BME280;19554;42.652;23.364;2023-04-08T00:05:14;94693.59;;;7.90;53.27
33191;BME280;19554;42.652;23.364;2023-04-08T00:07:40;94699.97;;;7.94;53.11
33191;BME280;19554;42.652;23.364;2023-04-08T00:10:05;94698.66;;;7.87;53.45
33191;BME280;19554;42.652;23.364;2023-04-08T00:12:31;94696.81;;;7.67;54.51
33191;BME280;19554;42.652;23.364;2023-04-08T00:14:57;94688.56;;;7.63;54.51
33191;BME280;19554;42.652;23.364;2023-04-08T00:17:22;94701.31;;;7.66;54.81
33191;BME280;19554;42.652;23.364;2023-04-08T00:19:48;94706.63;;;7.66;54.84
33191;BME280;19554;42.652;23.364;2023-04-08T00:22:13;94697.06;;;7.60;54.88
33191;BME280;19554;42.652;23.364;2023-04-08T00:24:39;94708.75;;;7.69;54.71
33191;BME280;19554;42.652;23.364;2023-04-08T00:27:05;94698.41;;;7.63;54.60
33191;BME280;19554;42.652;23.364;2023-04-08T00:29:30;94697.59;;;7.57;54.56
33191;BME280;19554;42.652;23.364;2023-04-08T00:31:56;94703.47;;;7.59;54.77
33191;BME280;19554;42.652;23.364;2023-04-08T00:34:22;94701.84;;;7.58;54.73
33191;BME280;19554;42.652;23.364;2023-04-08T00:36:47;94642.34;;;7.03;54.52
33191;BME280;19554;42.652;23.364;2023-04-08T00:39:13;94703.44;;;7.18;55.07
33191;BME280;19554;42.652;23.364;2023-04-08T00:41:39;94685.88;;;7.17;55.23
33191;BME280;19554;42.652;23.364;2023-04-08T00:44:04;94695.97;;;7.10;55.46
33191;BME280;19554;42.652;23.364;2023-04-08T00:46:30;94705.50;;;7.11;55.36
33191;BME280;19554;42.652;23.364;2023-04-08T00:48:58;94712.91;;;6.94;55.69
33191;BME280;19554;42.652;23.364;2023-04-08T00:51:27;94630.41;;;6.07;56.71
33191;BME280;19554;42.652;23.364;2023-04-08T00:53:53;94698.47;;;6.54;56.62
33191;BME280;19554;42.652;23.364;2023-04-08T00:56:19;94713.09;;;6.67;56.62
33191;BME280;19554;42.652;23.364;2023-04-08T00:58:46;94719.22;;;6.72;56.62
33191;BME280;19554;42.652;23.364;2023-04-08T01:01:14;94711.81;;;6.74;56.42
33191;BME280;19554;42.652;23.364;2023-04-08T01:03:53;94715.81;;;6.82;56.21
33191;BME280;19554;42.652;23.364;2023-04-08T01:08:53;94707.06;;;6.86;55.94
33191;BME280;19554;42.652;23.364;2023-04-08T01:11:19;94718.50;;;6.97;56.07
33191;BME280;19554;42.652;23.364;2023-04-08T01:13:46;94663.00;;;6.75;55.49
33191;BME280;19554;42.652;23.364;2023-04-08T01:16:14;94697.53;;;7.01;55.32
33191;BME280;19554;42.652;23.364;2023-04-08T01:18:42;94703.13;;;7.04;54.64
33191;BME280;19554;42.652;23.364;2023-04-08T01:21:10;94697.78;;;6.84;54.84
33191;BME280;19554;42.652;23.364;2023-04-08T01:23:52;94718.75;;;7.01;54.83
33191;BME280;19554;42.652;23.364;2023-04-08T01:26:21;94708.69;;;7.03;55.04
33191;BME280;19554;42.652;23.364;2023-04-08T01:28:50;94719.56;;;7.06;55.37
33191;BME280;19554;42.652;23.364;2023-04-08T01:31:16;94706.06;;;7.13;55.03
33191;BME280;19554;42.652;23.364;2023-04-08T01:33:44;94659.84;;;6.88;54.70
33191;BME280;19554;42.652;23.364;2023-04-08T01:36:11;94701.03;;;7.17;54.41
33191;BME280;19554;42.652;23.364;2023-04-08T01:38:37;94712.19;;;7.24;54.20
33191;BME280;19554;42.652;23.364;2023-04-08T01:41:04;94684.28;;;7.06;54.22
33191;BME280;19554;42.652;23.364;2023-04-08T01:43:30;94708.19;;;7.31;54.54
33191;BME280;19554;42.652;23.364;2023-04-08T01:45:58;94692.00;;;7.18;54.65
33191;BME280;19554;42.652;23.364;2023-04-08T01:48:25;94720.44;;;7.43;54.88
33191;BME280;19554;42.652;23.364;2023-04-08T01:50:53;94716.72;;;7.44;55.26
33191;BME280;19554;42.652;23.364;2023-04-08T01:53:20;94677.94;;;7.22;55.13
33191;BME280;19554;42.652;23.364;2023-04-08T01:55:48;94709.81;;;7.43;54.97
33191;BME280;19554;42.652;23.364;2023-04-08T01:58:19;94648.72;;;7.07;55.03
33191;BME280;19554;42.652;23.364;2023-04-08T02:00:45;94723.63;;;7.55;54.86
33191;BME280;19554;42.652;23.364;2023-04-08T02:03:12;94629.06;;;6.93;55.14
33191;BME280;19554;42.652;23.364;2023-04-08T02:05:39;94604.13;;;6.78;54.23
33191;BME280;19554;42.652;23.364;2023-04-08T02:08:04;94629.59;;;6.84;53.72
33191;BME280;19554;42.652;23.364;2023-04-08T02:10:30;94728.69;;;7.46;53.47
33191;BME280;19554;42.652;23.364;2023-04-08T02:12:55;94712.44;;;7.12;53.87
33191;BME280;19554;42.652;23.364;2023-04-08T02:15:21;94737.66;;;7.20;54.05
33191;BME280;19554;42.652;23.364;2023-04-08T02:17:54;94736.84;;;7.09;53.92
33191;BME280;19554;42.652;23.364;2023-04-08T02:20:47;94740.50;;;6.87;54.37
33191;BME280;19554;42.652;23.364;2023-04-08T02:23:19;94738.34;;;6.79;53.96
33191;BME280;19554;42.652;23.364;2023-04-08T02:25:46;94724.75;;;6.65;54.11
33191;BME280;19554;42.652;23.364;2023-04-08T02:28:13;94737.22;;;6.60;54.03
33191;BME280;19554;42.652;23.364;2023-04-08T02:30:47;94710.84;;;6.33;54.46
33191;BME280;19554;42.652;23.364;2023-04-08T02:33:13;94632.88;;;5.71;54.58
33191;BME280;19554;42.652;23.364;2023-04-08T02:35:40;94707.81;;;6.14;55.16
33191;BME280;19554;42.652;23.364;2023-04-08T02:38:06;94701.47;;;6.15;54.98
33191;BME280;19554;42.652;23.364;2023-04-08T02:40:32;94721.59;;;6.11;55.53
33191;BME280;19554;42.652;23.364;2023-04-08T02:42:59;94740.19;;;6.16;56.07
33191;BME280;19554;42.652;23.364;2023-04-08T02:45:32;94734.31;;;6.09;56.61
33191;BME280;19554;42.652;23.364;2023-04-08T02:47:59;94741.78;;;6.17;56.52
33191;BME280;19554;42.652;23.364;2023-04-08T02:50:25;94678.19;;;5.80;56.15
33191;BME280;19554;42.652;23.364;2023-04-08T02:52:51;94723.16;;;6.07;56.43
33191;BME280;19554;42.652;23.364;2023-04-08T02:55:16;94726.38;;;6.14;56.30
33191;BME280;19554;42.652;23.364;2023-04-08T02:57:42;94727.34;;;5.98;56.88
33191;BME280;19554;42.652;23.364;2023-04-08T03:00:08;94736.13;;;6.03;57.07
33191;BME280;19554;42.652;23.364;2023-04-08T03:02:33;94652.50;;;5.43;57.06
33191;BME280;19554;42.652;23.364;2023-04-08T03:04:59;94736.53;;;5.90;57.10
33191;BME280;19554;42.652;23.364;2023-04-08T03:07:24;94740.63;;;6.03;56.96
33191;BME280;19554;42.652;23.364;2023-04-08T03:09:50;94746.22;;;6.06;56.77
33191;BME280;19554;42.652;23.364;2023-04-08T03:12:15;94738.59;;;6.20;56.68
33191;BME280;19554;42.652;23.364;2023-04-08T03:14:41;94740.28;;;6.36;56.22
33191;BME280;19554;42.652;23.364;2023-04-08T03:17:06;94714.53;;;6.32;56.04
33191;BME280;19554;42.652;23.364;2023-04-08T03:19:32;94736.28;;;6.34;56.08
33191;BME280;19554;42.652;23.364;2023-04-08T03:21:57;94737.69;;;6.52;55.42
33191;BME280;19554;42.652;23.364;2023-04-08T03:24:22;94735.59;;;6.59;55.04
33191;BME280;19554;42.652;23.364;2023-04-08T03:26:48;94739.88;;;6.60;54.83
33191;BME280;19554;42.652;23.364;2023-04-08T03:29:13;94743.09;;;6.72;54.81
33191;BME280;19554;42.652;23.364;2023-04-08T03:31:39;94628.84;;;6.06;54.52
33191;BME280;19554;42.652;23.364;2023-04-08T03:34:04;94737.84;;;6.93;54.70
33191;BME280;19554;42.652;23.364;2023-04-08T03:36:30;94741.84;;;7.00;54.51
33191;BME280;19554;42.652;23.364;2023-04-08T03:38:55;94676.50;;;6.69;54.47
33191;BME280;19554;42.652;23.364;2023-04-08T03:41:20;94741.13;;;7.15;54.16
33191;BME280;19554;42.652;23.364;2023-04-08T03:43:46;94738.44;;;7.20;54.20
33191;BME280;19554;42.652;23.364;2023-04-08T03:46:11;94738.44;;;7.20;53.94
33191;BME280;19554;42.652;23.364;2023-04-08T03:48:37;94747.44;;;6.99;53.70
33191;BME280;19554;42.652;23.364;2023-04-08T03:51:02;94653.56;;;6.32;54.00
33191;BME280;19554;42.652;23.364;2023-04-08T03:53:27;94715.78;;;6.72;54.07
33191;BME280;19554;42.652;23.364;2023-04-08T03:55:54;94741.03;;;6.84;54.06
33191;BME280;19554;42.652;23.364;2023-04-08T03:58:20;94717.03;;;6.54;54.47
33191;BME280;19554;42.652;23.364;2023-04-08T04:00:45;94671.59;;;6.30;54.67
33191;BME280;19554;42.652;23.364;2023-04-08T04:03:10;94743.13;;;6.77;54.65
33191;BME280;19554;42.652;23.364;2023-04-08T04:05:37;94747.06;;;6.70;54.99
33191;BME280;19554;42.652;23.364;2023-04-08T04:08:03;94732.47;;;6.72;54.56
33191;BME280;19554;42.652;23.364;2023-04-08T04:10:29;94735.44;;;6.81;54.57
33191;BME280;19554;42.652;23.364;2023-04-08T04:12:54;94735.19;;;6.87;54.54
33191;BME280;19554;42.652;23.364;2023-04-08T04:15:19;94733.03;;;6.79;54.69
33191;BME280;19554;42.652;23.364;2023-04-08T04:17:49;94746.34;;;6.84;54.81
33191;BME280;19554;42.652;23.364;2023-04-08T04:20:16;94641.81;;;6.02;55.43
33191;BME280;19554;42.652;23.364;2023-04-08T04:22:41;94661.16;;;6.03;55.50
33191;BME280;19554;42.652;23.364;2023-04-08T04:25:07;94762.13;;;6.59;55.98
33191;BME280;19554;42.652;23.364;2023-04-08T04:27:33;94753.16;;;6.65;55.89
33191;BME280;19554;42.652;23.364;2023-04-08T04:29:59;94727.66;;;6.59;55.66
33191;BME280;19554;42.652;23.364;2023-04-08T04:32:25;94755.06;;;6.80;55.49
33191;BME280;19554;42.652;23.364;2023-04-08T04:34:50;94757.19;;;6.78;55.59
33191;BME280;19554;42.652;23.364;2023-04-08T04:37:16;94723.91;;;6.50;55.67
33191;BME280;19554;42.652;23.364;2023-04-08T04:39:42;94748.94;;;6.74;55.64
33191;BME280;19554;42.652;23.364;2023-04-08T04:42:08;94755.88;;;6.80;55.80
33191;BME280;19554;42.652;23.364;2023-04-08T04:44:33;94756.06;;;6.69;55.71
33191;BME280;19554;42.652;23.364;2023-04-08T04:46:58;94755.00;;;6.70;55.71
33191;BME280;19554;42.652;23.364;2023-04-08T04:49:24;94743.59;;;6.69;55.30
33191;BME280;19554;42.652;23.364;2023-04-08T04:51:49;94748.41;;;6.72;55.78
33191;BME280;19554;42.652;23.364;2023-04-08T04:54:14;94751.06;;;6.72;55.90
33191;BME280;19554;42.652;23.364;2023-04-08T04:56:40;94756.88;;;6.64;56.12
33191;BME280;19554;42.652;23.364;2023-04-08T04:59:05;94752.63;;;6.68;56.10
33191;BME280;19554;42.652;23.364;2023-04-08T05:01:31;94760.56;;;6.63;56.51
33191;BME280;19554;42.652;23.364;2023-04-08T05:03:56;94690.88;;;6.15;56.53
33191;BME280;19554;42.652;23.364;2023-04-08T05:06:22;94762.69;;;6.61;56.64
33191;BME280;19554;42.652;23.364;2023-04-08T05:08:48;94735.03;;;6.47;56.83
33191;BME280;19554;42.652;23.364;2023-04-08T05:11:13;94761.13;;;6.70;56.77
33191;BME280;19554;42.652;23.364;2023-04-08T05:13:39;94661.19;;;6.18;56.39
33191;BME280;19554;42.652;23.364;2023-04-08T05:16:04;94756.94;;;6.84;56.33
33191;BME280;19554;42.652;23.364;2023-04-08T05:18:30;94751.63;;;6.89;56.06
33191;BME280;19554;42.652;23.364;2023-04-08T05:20:55;94757.00;;;7.05;55.75
33191;BME280;19554;42.652;23.364;2023-04-08T05:23:21;94755.91;;;7.01;55.98
33191;BME280;19554;42.652;23.364;2023-04-08T05:25:46;94759.94;;;7.13;56.01
33191;BME280;19554;42.652;23.364;2023-04-08T05:28:12;94683.69;;;6.78;55.70
33191;BME280;19554;42.652;23.364;2023-04-08T05:30:37;94742.19;;;7.19;55.82
33191;BME280;19554;42.652;23.364;2023-04-08T05:33:02;94763.16;;;7.26;55.95
33191;BME280;19554;42.652;23.364;2023-04-08T05:35:28;94764.72;;;7.17;55.85
33191;BME280;19554;42.652;23.364;2023-04-08T05:37:53;94712.88;;;6.83;55.93
33191;BME280;19554;42.652;23.364;2023-04-08T05:40:18;94760.72;;;7.14;56.04
33191;BME280;19554;42.652;23.364;2023-04-08T05:42:44;94760.19;;;7.07;56.45
33191;BME280;19554;42.652;23.364;2023-04-08T05:45:09;94762.34;;;7.15;56.72
33191;BME280;19554;42.652;23.364;2023-04-08T05:47:35;94753.28;;;7.06;56.00
33191;BME280;19554;42.652;23.364;2023-04-08T05:50:00;94760.69;;;7.04;56.47
33191;BME280;19554;42.652;23.364;2023-04-08T05:52:26;94757.00;;;7.05;56.84
33191;BME280;19554;42.652;23.364;2023-04-08T05:54:51;94758.81;;;6.89;57.05
33191;BME280;19554;42.652;23.364;2023-04-08T05:57:16;94752.69;;;6.83;57.26
33191;BME280;19554;42.652;23.364;2023-04-08T05:59:42;94758.00;;;6.88;56.88
33191;BME280;19554;42.652;23.364;2023-04-08T06:02:07;94748.91;;;6.69;57.62
33191;BME280;19554;42.652;23.364;2023-04-08T06:04:33;94759.03;;;6.82;57.31
33191;BME280;19554;42.652;23.364;2023-04-08T06:06:58;94747.28;;;6.58;57.60
33191;BME280;19554;42.652;23.364;2023-04-08T06:09:26;94753.66;;;6.62;57.72
33191;BME280;19554;42.652;23.364;2023-04-08T06:11:51;94762.69;;;6.61;57.96
33191;BME280;19554;42.652;23.364;2023-04-08T06:14:17;94762.16;;;6.64;57.88
33191;BME280;19554;42.652;23.364;2023-04-08T06:16:42;94756.88;;;6.64;57.77
33191;BME280;19554;42.652;23.364;2023-04-08T06:19:08;94754.75;;;6.71;57.90
33191;BME280;19554;42.652;23.364;2023-04-08T06:21:33;94763.25;;;6.73;57.47
33191;BME280;19554;42.652;23.364;2023-04-08T06:23:59;94763.72;;;6.55;57.26
33191;BME280;19554;42.652;23.364;2023-04-08T06:26:24;94758.28;;;6.34;58.55
33191;BME280;19554;42.652;23.364;2023-04-08T06:28:50;94741.25;;;6.20;59.47
33191;BME280;19554;42.652;23.364;2023-04-08T06:31:16;94762.06;;;6.49;59.84
33191;BME280;19554;42.652;23.364;2023-04-08T06:33:41;94761.13;;;6.70;59.57
33191;BME280;19554;42.652;23.364;2023-04-08T06:36:07;94738.34;;;6.74;59.49
33191;BME280;19554;42.652;23.364;2023-04-08T06:38:32;94766.00;;;7.04;59.25
33191;BME280;19554;42.652;23.364;2023-04-08T06:41:02;94763.44;;;7.29;58.80
33191;BME280;19554;42.652;23.364;2023-04-08T06:43:28;94679.22;;;6.89;58.58
33191;BME280;19554;42.652;23.364;2023-04-08T06:45:54;94766.34;;;7.38;58.78
33191;BME280;19554;42.652;23.364;2023-04-08T06:48:20;94742.69;;;7.21;57.73
33191;BME280;19554;42.652;23.364;2023-04-08T06:50:47;94714.56;;;7.15;57.72
33191;BME280;19554;42.652;23.364;2023-04-08T06:53:13;94772.22;;;7.66;57.29
33191;BME280;19554;42.652;23.364;2023-04-08T06:55:38;94773.56;;;7.63;57.05
33191;BME280;19554;42.652;23.364;2023-04-08T06:58:03;94768.25;;;7.58;57.62
33191;BME280;19554;42.652;23.364;2023-04-08T07:00:29;94763.47;;;7.50;57.96
33191;BME280;19554;42.652;23.364;2023-04-08T07:02:54;94713.50;;;7.21;58.27
33191;BME280;19554;42.652;23.364;2023-04-08T07:05:19;94765.84;;;7.51;58.47
33191;BME280;19554;42.652;23.364;2023-04-08T07:07:45;94766.63;;;7.52;58.72
33191;BME280;19554;42.652;23.364;2023-04-08T07:10:11;94750.72;;;7.57;58.34
33191;BME280;19554;42.652;23.364;2023-04-08T07:12:37;94767.22;;;7.79;57.86
33191;BME280;19554;42.652;23.364;2023-04-08T07:15:02;94666.78;;;7.05;57.58
33191;BME280;19554;42.652;23.364;2023-04-08T07:17:28;94766.66;;;7.88;56.86
33191;BME280;19554;42.652;23.364;2023-04-08T07:19:53;94776.22;;;7.99;56.77
33191;BME280;19554;42.652;23.364;2023-04-08T07:22:20;94779.44;;;8.01;56.46
33191;BME280;19554;42.652;23.364;2023-04-08T07:24:45;94777.53;;;8.06;56.40
33191;BME280;19554;42.652;23.364;2023-04-08T07:27:14;94779.44;;;7.70;58.04
33191;BME280;19554;42.652;23.364;2023-04-08T07:29:40;94775.97;;;7.75;58.46
33191;BME280;19554;42.652;23.364;2023-04-08T07:32:06;94778.09;;;7.88;58.38
33191;BME280;19554;42.652;23.364;2023-04-08T07:34:33;94697.06;;;7.40;58.06
33191;BME280;19554;42.652;23.364;2023-04-08T07:36:59;94768.81;;;7.91;58.19
33191;BME280;19554;42.652;23.364;2023-04-08T07:39:25;94778.63;;;8.11;57.85
33191;BME280;19554;42.652;23.364;2023-04-08T07:41:51;94787.38;;;8.26;56.08
33191;BME280;19554;42.652;23.364;2023-04-08T07:44:16;94787.38;;;8.21;56.42
33191;BME280;19554;42.652;23.364;2023-04-08T07:46:41;94781.25;;;8.31;56.37
33191;BME280;19554;42.652;23.364;2023-04-08T07:49:08;94791.09;;;8.25;56.38
33191;BME280;19554;42.652;23.364;2023-04-08T07:51:33;94791.09;;;8.36;56.36
33191;BME280;19554;42.652;23.364;2023-04-08T07:53:59;94793.72;;;8.51;56.64
33191;BME280;19554;42.652;23.364;2023-04-08T07:56:24;94794.25;;;8.68;56.06
33191;BME280;19554;42.652;23.364;2023-04-08T07:58:50;94795.56;;;8.71;55.64
33191;BME280;19554;42.652;23.364;2023-04-08T08:01:20;94800.59;;;8.77;55.60
33191;BME280;19554;42.652;23.364;2023-04-08T08:03:46;94804.03;;;8.78;55.34
33191;BME280;19554;42.652;23.364;2023-04-08T08:06:12;94803.22;;;8.93;54.55
33191;BME280;19554;42.652;23.364;2023-04-08T08:08:37;94801.06;;;9.00;53.85
33191;BME280;19554;42.652;23.364;2023-04-08T08:11:03;94803.19;;;8.98;53.89
33191;BME280;19554;42.652;23.364;2023-04-08T08:13:28;94743.75;;;8.43;54.00
33191;BME280;19554;42.652;23.364;2023-04-08T08:15:54;94800.06;;;8.75;53.70
33191;BME280;19554;42.652;23.364;2023-04-08T08:18:19;94806.97;;;8.82;54.18
33191;BME280;19554;42.652;23.364;2023-04-08T08:20:45;94782.00;;;8.67;54.63
33191;BME280;19554;42.652;23.364;2023-04-08T08:23:11;94803.72;;;9.00;53.46
33191;BME280;19554;42.652;23.364;2023-04-08T08:25:36;94803.69;;;9.10;52.40
33191;BME280;19554;42.652;23.364;2023-04-08T08:28:01;94798.25;;;9.25;52.31
33191;BME280;19554;42.652;23.364;2023-04-08T08:30:27;94801.41;;;9.38;52.05
33191;BME280;19554;42.652;23.364;2023-04-08T08:32:52;94806.13;;;9.51;51.94
33191;BME280;19554;42.652;23.364;2023-04-08T08:35:18;94712.56;;;9.18;51.48
33191;BME280;19554;42.652;23.364;2023-04-08T08:37:44;94793.19;;;9.73;52.63
33191;BME280;19554;42.652;23.364;2023-04-08T08:40:09;94741.28;;;9.27;53.23
33191;BME280;19554;42.652;23.364;2023-04-08T08:42:35;94734.41;;;9.15;53.92
33191;BME280;19554;42.652;23.364;2023-04-08T08:45:02;94740.31;;;9.02;54.61
33191;BME280;19554;42.652;23.364;2023-04-08T08:47:27;94798.72;;;9.43;54.82
33191;BME280;19554;42.652;23.364;2023-04-08T08:49:53;94807.34;;;9.24;55.49
33191;BME280;19554;42.652;23.364;2023-04-08T08:52:18;94799.81;;;9.37;55.45
33191;BME280;19554;42.652;23.364;2023-04-08T08:54:44;94819.06;;;9.23;55.73
33191;BME280;19554;42.652;23.364;2023-04-08T08:57:19;94812.13;;;9.22;55.83
33191;BME280;19554;42.652;23.364;2023-04-08T08:59:48;94702.19;;;8.62;55.90
33191;BME280;19554;42.652;23.364;2023-04-08T09:02:27;94815.84;;;9.27;56.25
33191;BME280;19554;42.652;23.364;2023-04-08T09:05:01;94815.06;;;9.21;56.13
33191;BME280;19554;42.652;23.364;2023-04-08T09:07:28;94818.63;;;9.01;56.88
33191;BME280;19554;42.652;23.364;2023-04-08T09:09:55;94825.06;;;8.85;57.83
33191;BME280;19554;42.652;23.364;2023-04-08T09:12:21;94760.75;;;8.57;58.13
33191;BME280;19554;42.652;23.364;2023-04-08T09:14:47;94810.13;;;8.89;58.02
33191;BME280;19554;42.652;23.364;2023-04-08T09:17:13;94824.47;;;8.98;58.10
33191;BME280;19554;42.652;23.364;2023-04-08T09:19:39;94822.81;;;9.17;57.55
33191;BME280;19554;42.652;23.364;2023-04-08T09:24:30;94808.81;;;9.46;56.30
33191;BME280;19554;42.652;23.364;2023-04-08T09:26:56;94815.13;;;9.60;55.44
33191;BME280;19554;42.652;23.364;2023-04-08T09:29:23;94811.59;;;9.75;55.36
33191;BME280;19554;42.652;23.364;2023-04-08T09:31:53;94794.81;;;9.75;55.59
33191;BME280;19554;42.652;23.364;2023-04-08T09:34:19;94809.41;;;9.77;55.50
33191;BME280;19554;42.652;23.364;2023-04-08T09:36:46;94795.22;;;9.87;55.34
33191;BME280;19554;42.652;23.364;2023-04-08T09:39:13;94805.31;;;9.95;55.20
33191;BME280;19554;42.652;23.364;2023-04-08T09:41:39;94788.63;;;10.13;54.92
33191;BME280;19554;42.652;23.364;2023-04-08T09:44:06;94794.72;;;9.85;54.65
33191;BME280;19554;42.652;23.364;2023-04-08T09:55:03;94783.47;;;10.80;50.34
33191;BME280;19554;42.652;23.364;2023-04-08T10:00:17;94785.41;;;10.75;51.04
33191;BME280;19554;42.652;23.364;2023-04-08T10:05:37;94765.06;;;10.79;51.81
33191;BME280;19554;42.652;23.364;2023-04-08T10:08:05;94766.25;;;10.09;52.71
33191;BME280;19554;42.652;23.364;2023-04-08T10:10:35;94778.81;;;9.75;54.00
33191;BME280;19554;42.652;23.364;2023-04-08T10:13:03;94763.88;;;9.73;54.32
33191;BME280;19554;42.652;23.364;2023-04-08T10:15:33;94762.75;;;9.85;53.99
33191;BME280;19554;42.652;23.364;2023-04-08T10:23:02;94775.16;;;10.00;53.69
33191;BME280;19554;42.652;23.364;2023-04-08T10:27:54;94715.94;;;9.68;52.96
33191;BME280;19554;42.652;23.364;2023-04-08T10:32:56;94770.75;;;9.80;53.50
33191;BME280;19554;42.652;23.364;2023-04-08T10:35:37;94760.66;;;9.77;54.20
33191;BME280;19554;42.652;23.364;2023-04-08T10:38:07;94751.25;;;9.84;53.28
33191;BME280;19554;42.652;23.364;2023-04-08T10:40:37;94750.06;;;9.66;54.13
33191;BME280;19554;42.652;23.364;2023-04-08T10:43:09;94747.84;;;9.79;54.38
33191;BME280;19554;42.652;23.364;2023-04-08T10:45:36;94748.19;;;10.01;54.69
33191;BME280;19554;42.652;23.364;2023-04-08T10:48:18;94756.53;;;10.24;53.74
33191;BME280;19554;42.652;23.364;2023-04-08T10:50:55;94674.78;;;9.80;53.13
33191;BME280;19554;42.652;23.364;2023-04-08T10:53:28;94733.63;;;10.17;53.32
33191;BME280;19554;42.652;23.364;2023-04-08T10:56:11;94750.19;;;10.14;52.36
33191;BME280;19554;42.652;23.364;2023-04-08T10:58:50;94739.31;;;10.11;52.78
33191;BME280;19554;42.652;23.364;2023-04-08T11:01:15;94739.72;;;9.94;53.04
33191;BME280;19554;42.652;23.364;2023-04-08T11:03:42;94744.31;;;10.17;52.63
33191;BME280;19554;42.652;23.364;2023-04-08T11:06:07;94733.56;;;10.28;52.48
33191;BME280;19554;42.652;23.364;2023-04-08T11:08:34;94724.97;;;10.36;52.73
33191;BME280;19554;42.652;23.364;2023-04-08T11:11:01;94726.91;;;10.54;52.15
33191;BME280;19554;42.652;23.364;2023-04-08T11:13:27;94724.72;;;10.56;50.06
33191;BME280;19554;42.652;23.364;2023-04-08T11:15:54;94723.03;;;10.65;49.94
33191;BME280;19554;42.652;23.364;2023-04-08T11:18:20;94720.28;;;10.95;49.29
33191;BME280;19554;42.652;23.364;2023-04-08T11:20:49;94703.41;;;10.99;48.49
33191;BME280;19554;42.652;23.364;2023-04-08T11:23:15;94709.25;;;11.01;48.06
33191;BME280;19554;42.652;23.364;2023-04-08T11:25:42;94704.50;;;10.98;48.86
33191;BME280;19554;42.652;23.364;2023-04-08T11:28:09;94694.25;;;11.05;48.58
33191;BME280;19554;42.652;23.364;2023-04-08T11:30:35;94719.38;;;11.04;47.92
33191;BME280;19554;42.652;23.364;2023-04-08T11:33:01;94637.69;;;10.60;48.27
33191;BME280;19554;42.652;23.364;2023-04-08T11:35:29;94713.00;;;11.00;47.17
33191;BME280;19554;42.652;23.364;2023-04-08T11:37:58;94714.88;;;11.00;47.81
33191;BME280;19554;42.652;23.364;2023-04-08T11:40:23;94701.16;;;11.06;46.36
33191;BME280;19554;42.652;23.364;2023-04-08T11:42:51;94700.31;;;11.30;45.93
33191;BME280;19554;42.652;23.364;2023-04-08T11:45:20;94696.97;;;11.38;45.33
33191;BME280;19554;42.652;23.364;2023-04-08T11:47:45;94623.13;;;10.72;44.13
33191;BME280;19554;42.652;23.364;2023-04-08T11:50:11;94701.16;;;11.06;45.77
33191;BME280;19554;42.652;23.364;2023-04-08T11:55:06;94687.25;;;10.66;47.88
33191;BME280;19554;42.652;23.364;2023-04-08T11:57:31;94706.22;;;10.65;48.20
33191;BME280;19554;42.652;23.364;2023-04-08T11:59:57;94697.59;;;10.49;49.04
33191;BME280;19554;42.652;23.364;2023-04-08T12:02:22;94693.34;;;10.48;49.65
33191;BME280;19554;42.652;23.364;2023-04-08T12:04:48;94677.28;;;10.53;50.10
33191;BME280;19554;42.652;23.364;2023-04-08T12:07:13;94676.56;;;10.66;49.86
33191;BME280;19554;42.652;23.364;2023-04-08T12:09:38;94675.72;;;10.90;48.72
33191;BME280;19554;42.652;23.364;2023-04-08T12:12:04;94665.72;;;10.82;48.88
33191;BME280;19554;42.652;23.364;2023-04-08T12:14:30;94679.31;;;11.04;49.45
33191;BME280;19554;42.652;23.364;2023-04-08T12:16:55;94681.16;;;11.04;48.16
33191;BME280;19554;42.652;23.364;2023-04-08T12:19:21;94673.50;;;10.78;48.67
33191;BME280;19554;42.652;23.364;2023-04-08T12:21:46;94611.59;;;10.09;47.82
33191;BME280;19554;42.652;23.364;2023-04-08T12:24:11;94685.56;;;10.52;47.24
33191;BME280;19554;42.652;23.364;2023-04-08T12:26:37;94672.25;;;10.71;47.48
33191;BME280;19554;42.652;23.364;2023-04-08T12:29:02;94670.97;;;10.87;48.43
33191;BME280;19554;42.652;23.364;2023-04-08T12:31:27;94676.38;;;11.01;48.50
33191;BME280;19554;42.652;23.364;2023-04-08T12:33:53;94694.19;;;10.67;47.72
33191;BME280;19554;42.652;23.364;2023-04-08T12:36:18;94664.44;;;10.55;48.14
33191;BME280;19554;42.652;23.364;2023-04-08T12:38:43;94671.34;;;10.56;48.17
33191;BME280;19554;42.652;23.364;2023-04-08T12:41:09;94655.72;;;10.50;48.40
33191;BME280;19554;42.652;23.364;2023-04-08T12:43:34;94643.16;;;10.50;49.36
33191;BME280;19554;42.652;23.364;2023-04-08T12:46:00;94660.66;;;10.56;49.86
33191;BME280;19554;42.652;23.364;2023-04-08T12:48:26;94657.16;;;10.61;50.11
33191;BME280;19554;42.652;23.364;2023-04-08T12:50:52;94599.84;;;10.34;49.74
33191;BME280;19554;42.652;23.364;2023-04-08T12:53:17;94656.94;;;10.57;51.79
33191;BME280;19554;42.652;23.364;2023-04-08T12:55:43;94653.44;;;10.38;50.49
33191;BME280;19554;42.652;23.364;2023-04-08T12:58:08;94655.72;;;10.26;52.33
33191;BME280;19554;42.652;23.364;2023-04-08T13:00:34;94661.13;;;10.15;52.48
33191;BME280;19554;42.652;23.364;2023-04-08T13:03:02;94640.50;;;9.97;51.92
33191;BME280;19554;42.652;23.364;2023-04-08T13:05:27;94652.66;;;10.08;52.36
33191;BME280;19554;42.652;23.364;2023-04-08T13:07:53;94645.63;;;10.17;51.96
33191;BME280;19554;42.652;23.364;2023-04-08T13:10:19;94640.22;;;10.28;51.30
33191;BME280;19554;42.652;23.364;2023-04-08T13:12:45;94571.19;;;9.73;51.27
33191;BME280;19554;42.652;23.364;2023-04-08T13:15:10;94639.59;;;10.36;50.84
33191;BME280;19554;42.652;23.364;2023-04-08T13:17:36;94648.31;;;10.41;50.93
33191;BME280;19554;42.652;23.364;2023-04-08T13:20:01;94645.25;;;10.53;50.43
33191;BME280;19554;42.652;23.364;2023-04-08T13:22:27;94544.59;;;9.92;50.25
33191;BME280;19554;42.652;23.364;2023-04-08T13:24:52;94652.09;;;10.59;50.39